Time;durP1;ratioP1;P1;durP2;ratioP2;P2;SDS_P1;SDS_P2;PMS_P1;PMS_P2;Temp;Humidity;BMP_temperature;BMP_pressure;BME280_temperature;BME280_humidity;BME280_pressure;Samples;Min_cycle;Max_cycle;Signal;HPM_P1;HPM_P2
2024/04/04 00:02:25;;;;;;;11.82;8.25;;;14.10;99.90;;;;;;5031799;28;20017;-69
2024/04/04 00:05:03;;;;;;;12.00;8.73;;;14.10;99.90;;;;;;5044179;28;20025;-69
2024/04/04 00:07:28;;;;;;;10.93;8.43;;;14.10;99.90;;;;;;5039569;28;20072;-69
2024/04/04 00:09:54;;;;;;;11.80;7.75;;;14.10;99.90;;;;;;5053798;28;20434;-69
2024/04/04 00:12:20;;;;;;;13.45;8.07;;;14.10;99.90;;;;;;5053388;28;20108;-69
2024/04/04 00:14:49;;;;;;;10.73;7.47;;;14.10;99.90;;;;;;5053623;28;20331;-70
2024/04/04 00:17:15;;;;;;;12.32;7.80;;;14.10;99.90;;;;;;5053288;28;20151;-69
2024/04/04 00:19:40;;;;;;;10.52;7.72;;;14.10;99.90;;;;;;5038484;28;20052;-69
2024/04/04 00:22:06;;;;;;;14.40;7.55;;;14.10;99.90;;;;;;5052972;28;20106;-69
2024/04/04 00:24:31;;;;;;;9.75;7.53;;;13.80;99.90;;;;;;5036334;28;20028;-69
2024/04/04 00:26:57;;;;;;;11.88;7.40;;;14.00;99.90;;;;;;5053359;28;20037;-69
2024/04/04 00:29:23;;;;;;;8.93;7.05;;;14.00;99.90;;;;;;5052896;28;20106;-69
2024/04/04 00:31:49;;;;;;;12.65;7.90;;;14.00;99.90;;;;;;5052246;28;20035;-69
2024/04/04 00:34:14;;;;;;;10.57;7.03;;;13.90;99.90;;;;;;5053143;28;20036;-69
2024/04/04 00:36:40;;;;;;;7.45;6.35;;;13.90;99.90;;;;;;5053031;28;20028;-69
2024/04/04 00:39:06;;;;;;;8.13;6.38;;;13.90;99.90;;;;;;5052610;28;20025;-69
2024/04/04 00:41:32;;;;;;;10.27;6.40;;;13.90;99.90;;;;;;5053381;28;20040;-69
2024/04/04 00:43:57;;;;;;;9.85;6.00;;;13.80;99.90;;;;;;5038875;28;20044;-69
2024/04/04 00:46:24;;;;;;;10.23;6.03;;;13.80;99.90;;;;;;5051229;28;20107;-69
2024/04/04 00:48:50;;;;;;;9.50;6.18;;;13.80;99.90;;;;;;5052727;28;20023;-69
2024/04/04 00:51:17;;;;;;;6.90;5.50;;;13.80;99.90;;;;;;5052917;28;20031;-69
2024/04/04 00:53:42;;;;;;;8.35;5.30;;;13.80;99.90;;;;;;5052815;28;20443;-69
2024/04/04 00:56:08;;;;;;;6.43;5.03;;;13.80;99.90;;;;;;5052566;28;20115;-69
2024/04/04 00:58:35;;;;;;;6.03;5.00;;;13.80;99.90;;;;;;5052329;28;20486;-69
2024/04/04 01:01:01;;;;;;;6.38;4.68;;;13.60;99.90;;;;;;5052901;28;20021;-69
2024/04/04 01:03:27;;;;;;;5.40;4.90;;;13.50;99.90;;;;;;5051844;28;20036;-69
2024/04/04 01:05:56;;;;;;;6.10;5.13;;;13.50;99.90;;;;;;5052677;28;20126;-69
2024/04/04 01:08:22;;;;;;;6.85;5.32;;;13.50;99.90;;;;;;5034185;28;20402;-69
2024/04/04 01:10:48;;;;;;;7.43;5.10;;;13.60;99.90;;;;;;5037907;28;20086;-69
2024/04/04 01:13:15;;;;;;;8.52;5.80;;;13.50;99.90;;;;;;5050715;28;20846;-69
2024/04/04 01:15:41;;;;;;;8.15;5.25;;;13.50;99.90;;;;;;5050134;28;20406;-69
2024/04/04 01:18:07;;;;;;;6.47;5.25;;;13.50;99.90;;;;;;5033434;28;20052;-69
2024/04/04 01:20:33;;;;;;;5.97;5.03;;;13.50;99.90;;;;;;5051326;28;20117;-69
2024/04/04 01:22:58;;;;;;;6.45;5.18;;;13.40;99.90;;;;;;5051160;28;20491;-69
2024/04/04 01:25:24;;;;;;;8.23;5.57;;;13.40;99.90;;;;;;5051576;28;20556;-69
2024/04/04 01:27:51;;;;;;;7.57;5.63;;;13.40;99.90;;;;;;5051294;28;20107;-69
2024/04/04 01:30:17;;;;;;;7.03;5.35;;;13.50;99.90;;;;;;5034334;28;20112;-69
2024/04/04 01:32:43;;;;;;;8.30;5.00;;;13.40;99.90;;;;;;5052059;28;20542;-69
2024/04/04 01:35:09;;;;;;;6.82;5.13;;;13.40;99.90;;;;;;5044457;28;20025;-69
2024/04/04 01:37:35;;;;;;;5.72;4.65;;;13.30;99.90;;;;;;5051824;28;20029;-69
2024/04/04 01:40:01;;;;;;;5.57;5.07;;;13.30;99.90;;;;;;5052015;28;20071;-69
2024/04/04 01:42:26;;;;;;;8.23;4.47;;;13.40;99.90;;;;;;5033849;28;20029;-69
2024/04/04 01:44:52;;;;;;;5.93;4.15;;;13.40;99.90;;;;;;5040995;28;20041;-68
2024/04/04 01:47:18;;;;;;;8.82;4.50;;;13.40;99.90;;;;;;5049852;28;20067;-69
2024/04/04 01:49:44;;;;;;;7.70;4.38;;;13.30;99.90;;;;;;5051866;28;20121;-69
2024/04/04 02:02:15;;;;;;;7.60;4.10;;;13.20;99.90;;;;;;5043568;28;20082;-69
2024/04/04 02:04:41;;;;;;;7.20;4.40;;;13.20;99.90;;;;;;5042508;28;20116;-69
2024/04/04 02:07:06;;;;;;;6.35;4.50;;;13.30;99.90;;;;;;5051316;28;20036;-69
2024/04/04 02:09:32;;;;;;;6.07;4.22;;;13.20;99.90;;;;;;5046906;28;20126;-69
2024/04/04 02:11:57;;;;;;;4.82;4.00;;;13.20;99.90;;;;;;5051715;28;20549;-69
2024/04/04 02:14:23;;;;;;;6.32;4.50;;;13.20;99.90;;;;;;5061007;28;20044;-69
2024/04/04 02:16:49;;;;;;;7.60;4.90;;;13.20;99.90;;;;;;5051509;28;20045;-69
2024/04/04 02:19:14;;;;;;;4.45;3.95;;;13.20;99.90;;;;;;5050648;28;20022;-69
2024/04/04 02:21:40;;;;;;;9.65;4.03;;;13.10;99.90;;;;;;5051486;28;20075;-68
2024/04/04 02:24:06;;;;;;;6.03;3.97;;;13.20;99.90;;;;;;5051506;28;20021;-69
2024/04/04 02:26:34;;;;;;;5.13;4.10;;;13.20;99.90;;;;;;5051387;28;20134;-68
2024/04/04 02:28:59;;;;;;;5.65;3.85;;;13.20;99.90;;;;;;5036540;28;20044;-69
2024/04/04 02:31:28;;;;;;;8.98;3.70;;;13.20;99.90;;;;;;5055302;28;20510;-68
2024/04/04 02:33:54;;;;;;;5.88;3.58;;;13.10;99.90;;;;;;5037229;28;20028;-68
2024/04/04 02:36:19;;;;;;;5.35;4.05;;;13.20;99.90;;;;;;5053583;28;20025;-68
2024/04/04 02:38:46;;;;;;;4.78;3.95;;;13.00;99.90;;;;;;5054976;28;20108;-69
2024/04/04 02:41:11;;;;;;;5.68;3.85;;;13.10;99.90;;;;;;5055224;28;20107;-69
2024/04/04 02:43:37;;;;;;;5.07;3.67;;;13.20;99.90;;;;;;5055024;28;20509;-68
2024/04/04 02:46:04;;;;;;;4.85;3.38;;;13.10;99.90;;;;;;5054850;28;20452;-68
2024/04/04 02:48:30;;;;;;;4.57;3.60;;;13.10;99.90;;;;;;5054988;28;20045;-69
2024/04/04 02:50:56;;;;;;;5.05;3.70;;;13.20;99.90;;;;;;5054737;28;20047;-68
2024/04/04 02:53:23;;;;;;;5.40;3.28;;;13.20;99.90;;;;;;5053466;28;20013;-68
2024/04/04 02:55:59;;;;;;;4.90;3.20;;;13.10;99.90;;;;;;5051859;28;20442;-68
2024/04/04 02:58:26;;;;;;;5.13;3.45;;;13.20;99.90;;;;;;5052085;28;20036;-68
2024/04/04 03:00:52;;;;;;;10.25;4.03;;;13.20;99.90;;;;;;5054064;28;20029;-68
2024/04/04 03:03:18;;;;;;;6.38;3.63;;;13.20;99.90;;;;;;5054538;28;20021;-69
2024/04/04 03:05:44;;;;;;;4.80;3.78;;;13.10;99.90;;;;;;5053794;28;20032;-68
2024/04/04 03:08:10;;;;;;;5.80;3.65;;;13.10;99.90;;;;;;5053335;28;20021;-68
2024/04/04 03:10:37;;;;;;;5.45;3.88;;;13.20;99.90;;;;;;5053254;28;20562;-68
2024/04/04 03:13:03;;;;;;;4.65;3.30;;;13.10;99.90;;;;;;5054136;28;20559;-68
2024/04/04 03:15:30;;;;;;;3.65;2.95;;;13.10;99.90;;;;;;5054000;28;20092;-68
2024/04/04 03:17:56;;;;;;;5.97;3.55;;;13.10;99.90;;;;;;5053860;28;20024;-68
2024/04/04 03:20:22;;;;;;;4.53;3.67;;;13.10;99.90;;;;;;5053750;28;20120;-68
2024/04/04 03:22:48;;;;;;;7.22;3.75;;;13.00;99.90;;;;;;5054087;28;20036;-68
2024/04/04 03:25:13;;;;;;;4.85;3.38;;;13.20;99.90;;;;;;5054015;28;20055;-69
2024/04/04 03:27:39;;;;;;;5.72;3.22;;;13.00;99.90;;;;;;5052942;28;20037;-68
2024/04/04 03:30:05;;;;;;;5.47;3.65;;;13.00;99.90;;;;;;5052672;28;20025;-68
2024/04/04 03:32:31;;;;;;;6.32;3.40;;;13.10;99.90;;;;;;5035698;28;20025;-68
2024/04/04 03:34:58;;;;;;;4.03;3.28;;;13.10;99.90;;;;;;5053883;28;20024;-68
2024/04/04 03:37:24;;;;;;;4.97;3.13;;;13.10;99.90;;;;;;5053354;28;20483;-68
2024/04/04 03:39:51;;;;;;;5.60;3.85;;;13.00;99.90;;;;;;5052974;28;20543;-68
2024/04/04 03:42:17;;;;;;;5.00;3.63;;;13.00;99.90;;;;;;5052682;28;20024;-68
2024/04/04 03:44:42;;;;;;;5.93;3.20;;;13.00;99.90;;;;;;5036049;28;20036;-69
2024/04/04 03:47:08;;;;;;;4.53;3.58;;;13.00;99.90;;;;;;5051879;28;20045;-68
2024/04/04 03:49:34;;;;;;;5.28;3.63;;;13.00;99.90;;;;;;5053497;28;20117;-68
2024/04/04 03:51:59;;;;;;;4.97;3.15;;;12.90;99.90;;;;;;5053154;28;20032;-68
2024/04/04 03:54:31;;;;;;;4.57;3.85;;;12.90;99.90;;;;;;5053478;28;20501;-68
2024/04/04 03:56:57;;;;;;;3.47;3.15;;;13.00;99.90;;;;;;5021050;28;20495;-68
2024/04/04 03:59:23;;;;;;;6.47;3.33;;;13.00;99.90;;;;;;5052376;28;20061;-68
2024/04/04 04:01:57;;;;;;;4.70;3.30;;;13.00;99.90;;;;;;5056814;28;20052;-68
2024/04/04 04:04:23;;;;;;;7.65;3.63;;;13.00;99.90;;;;;;5050628;28;20379;-68
2024/04/04 04:06:48;;;;;;;4.05;2.97;;;12.90;99.90;;;;;;5052947;28;20039;-68
2024/04/04 04:09:14;;;;;;;4.18;2.97;;;13.00;99.90;;;;;;5052720;28;20523;-69
2024/04/04 04:11:40;;;;;;;5.43;3.67;;;12.90;99.90;;;;;;5050354;28;20100;-69
2024/04/04 04:14:05;;;;;;;4.90;3.65;;;13.00;99.90;;;;;;5053000;28;20417;-69
2024/04/04 04:16:31;;;;;;;3.50;2.88;;;12.90;99.90;;;;;;5053308;28;20021;-69
2024/04/04 04:18:56;;;;;;;4.00;3.47;;;12.90;99.90;;;;;;5051581;28;20024;-69
2024/04/04 04:21:24;;;;;;;4.50;3.10;;;12.90;99.90;;;;;;5052836;28;20033;-68
2024/04/04 04:23:51;;;;;;;4.57;3.45;;;13.10;99.90;;;;;;5052793;28;20028;-68
2024/04/04 04:26:17;;;;;;;4.30;2.92;;;13.00;99.90;;;;;;5052514;28;20029;-69
2024/04/04 04:28:44;;;;;;;3.80;3.13;;;13.00;99.90;;;;;;5052357;28;20522;-69
2024/04/04 04:31:32;;;;;;;6.50;3.05;;;13.10;99.90;;;;;;5052863;28;20433;-69
2024/04/04 04:34:01;;;;;;;5.35;3.25;;;13.10;99.90;;;;;;5053115;28;20029;-68
2024/04/04 04:36:30;;;;;;;5.32;3.20;;;13.10;99.90;;;;;;5052117;28;20032;-68
2024/04/04 04:38:55;;;;;;;3.33;2.90;;;13.10;99.90;;;;;;5047347;28;20387;-69
2024/04/04 04:41:21;;;;;;;4.13;2.65;;;13.00;99.90;;;;;;5052899;28;20040;-69
2024/04/04 04:43:48;;;;;;;3.80;3.13;;;13.00;99.90;;;;;;5052622;28;20021;-68
2024/04/04 04:46:14;;;;;;;4.40;3.28;;;13.00;99.90;;;;;;5052431;28;20049;-68
2024/04/04 04:48:40;;;;;;;6.20;3.13;;;13.00;99.90;;;;;;5052957;28;20387;-69
2024/04/04 04:51:06;;;;;;;3.10;2.80;;;13.00;99.90;;;;;;5034106;28;20021;-68
2024/04/04 04:53:31;;;;;;;4.78;3.33;;;13.00;99.90;;;;;;5051685;28;20179;-69
2024/04/04 04:55:57;;;;;;;4.72;2.78;;;13.00;99.90;;;;;;5034736;28;20052;-68
2024/04/04 04:58:22;;;;;;;4.10;2.78;;;12.80;99.90;;;;;;5052262;28;20025;-68
2024/04/04 05:00:51;;;;;;;4.45;3.22;;;13.00;99.90;;;;;;5041704;28;20048;-68
2024/04/04 05:03:20;;;;;;;3.90;2.85;;;13.00;99.90;;;;;;5054609;28;20021;-68
2024/04/04 05:05:46;;;;;;;5.60;3.20;;;12.90;99.90;;;;;;5052280;28;22019;-68
2024/04/04 05:08:12;;;;;;;8.77;3.63;;;13.00;99.90;;;;;;5052255;28;20099;-68
2024/04/04 05:10:38;;;;;;;5.50;3.50;;;13.00;99.90;;;;;;5052242;28;20040;-68
2024/04/04 05:13:04;;;;;;;3.92;3.20;;;13.00;99.90;;;;;;5052209;28;20021;-68
2024/04/04 05:15:30;;;;;;;5.03;3.53;;;13.00;99.90;;;;;;5051948;28;20025;-68
2024/04/04 05:17:56;;;;;;;5.20;3.67;;;13.10;99.90;;;;;;5049064;28;20462;-68
2024/04/04 05:20:22;;;;;;;4.68;2.75;;;13.00;99.90;;;;;;5052805;28;20115;-68
2024/04/04 05:22:47;;;;;;;4.50;3.08;;;13.00;99.90;;;;;;5051071;28;20108;-68
2024/04/04 05:25:16;;;;;;;4.55;3.25;;;13.10;99.90;;;;;;5052189;28;20156;-68
2024/04/04 05:27:42;;;;;;;5.00;3.05;;;13.10;99.90;;;;;;5049510;28;20407;-68
2024/04/04 05:30:13;;;;;;;5.38;3.42;;;13.10;99.90;;;;;;5051060;28;20025;-68
2024/04/04 05:32:39;;;;;;;3.35;3.05;;;13.20;99.90;;;;;;5049452;28;20021;-68
2024/04/04 05:35:06;;;;;;;4.57;3.42;;;13.30;99.90;;;;;;5050484;28;20104;-68
2024/04/04 05:37:32;;;;;;;3.33;3.03;;;13.20;99.90;;;;;;5051193;28;20041;-68
2024/04/04 05:39:58;;;;;;;5.75;3.08;;;13.20;99.90;;;;;;5050613;28;20029;-68
2024/04/04 05:42:26;;;;;;;5.78;3.55;;;13.30;99.90;;;;;;5051532;28;20033;-68
2024/04/04 05:44:52;;;;;;;6.32;4.13;;;13.30;99.90;;;;;;5051306;28;20101;-68
2024/04/04 05:47:17;;;;;;;6.20;3.00;;;13.30;99.90;;;;;;5051703;28;20107;-68
2024/04/04 05:49:43;;;;;;;4.38;3.60;;;13.30;99.90;;;;;;5051964;28;20033;-68
2024/04/04 05:52:09;;;;;;;4.18;3.05;;;13.20;99.90;;;;;;5050954;28;20490;-68
2024/04/04 05:54:37;;;;;;;4.25;2.95;;;13.30;99.90;;;;;;5049318;28;20032;-68
2024/04/04 05:57:03;;;;;;;5.00;3.05;;;13.30;99.90;;;;;;5044293;28;20045;-68
2024/04/04 05:59:29;;;;;;;4.00;2.88;;;13.40;99.90;;;;;;5051712;28;20079;-67
2024/04/04 06:01:55;;;;;;;4.60;3.00;;;13.40;99.90;;;;;;5051772;28;20016;-67
2024/04/04 06:04:20;;;;;;;4.07;3.45;;;13.50;99.90;;;;;;5054991;28;20048;-68
2024/04/04 06:06:46;;;;;;;5.20;3.67;;;13.40;99.90;;;;;;5055348;28;20065;-68
2024/04/04 06:09:13;;;;;;;4.22;3.53;;;13.40;99.90;;;;;;5055240;28;20013;-68
2024/04/04 06:11:39;;;;;;;9.30;3.65;;;13.50;99.90;;;;;;5053736;28;20157;-67
2024/04/04 06:14:06;;;;;;;7.40;3.33;;;13.60;99.90;;;;;;5053899;28;20040;-69
2024/04/04 06:16:31;;;;;;;7.25;3.97;;;13.50;99.90;;;;;;5055431;28;20108;-69
2024/04/04 06:18:57;;;;;;;5.78;3.42;;;13.60;99.90;;;;;;5038833;28;20526;-68
2024/04/04 06:21:23;;;;;;;4.50;3.42;;;13.60;99.90;;;;;;5055430;28;20025;-69
2024/04/04 06:23:48;;;;;;;6.38;3.80;;;13.60;99.90;;;;;;5056925;28;20029;-68
2024/04/04 06:26:14;;;;;;;5.20;3.22;;;13.60;99.90;;;;;;5056458;28;20037;-68
2024/04/04 06:28:40;;;;;;;8.27;3.60;;;13.50;99.90;;;;;;5060693;28;20107;-69
2024/04/04 06:31:05;;;;;;;6.45;4.45;;;13.60;99.90;;;;;;5061737;28;20036;-68
2024/04/04 06:33:31;;;;;;;6.55;3.92;;;13.70;99.90;;;;;;5052360;28;20371;-68
2024/04/04 06:35:57;;;;;;;8.65;4.13;;;13.80;99.90;;;;;;5032614;28;20105;-68
2024/04/04 06:38:23;;;;;;;6.82;4.78;;;13.80;99.90;;;;;;5055589;28;20108;-68
2024/04/04 06:40:49;;;;;;;7.88;4.22;;;13.90;99.90;;;;;;5053333;28;20111;-68
2024/04/04 06:43:15;;;;;;;10.20;5.18;;;13.90;99.90;;;;;;5057578;28;20418;-68
2024/04/04 06:45:41;;;;;;;9.32;5.78;;;13.90;99.90;;;;;;5061134;28;20045;-68
2024/04/04 06:48:07;;;;;;;8.75;4.93;;;14.00;99.90;;;;;;5062380;28;20473;-68
2024/04/04 06:50:32;;;;;;;7.95;4.90;;;14.00;99.90;;;;;;5053331;28;20016;-68
2024/04/04 06:52:58;;;;;;;9.27;5.05;;;13.80;99.90;;;;;;5053518;28;20040;-68
2024/04/04 06:55:24;;;;;;;10.88;5.40;;;13.80;99.90;;;;;;5035757;28;20037;-68
2024/04/04 06:57:49;;;;;;;8.80;5.80;;;13.90;99.90;;;;;;5054325;28;20044;-69
2024/04/04 07:00:16;;;;;;;8.82;5.65;;;14.00;99.90;;;;;;5054303;28;20053;-68
2024/04/04 07:02:42;;;;;;;6.95;5.05;;;13.80;99.90;;;;;;5055762;28;20020;-68
2024/04/04 07:05:11;;;;;;;7.28;5.45;;;13.90;99.90;;;;;;5049110;28;20091;-68
2024/04/04 07:07:37;;;;;;;5.90;5.10;;;13.90;99.90;;;;;;5052820;28;20036;-68
2024/04/04 07:10:05;;;;;;;10.90;5.88;;;13.80;99.90;;;;;;5054935;28;20127;-67
2024/04/04 07:12:30;;;;;;;8.45;6.88;;;13.90;99.90;;;;;;5061976;28;20024;-68
2024/04/04 07:14:56;;;;;;;9.55;7.85;;;14.00;99.90;;;;;;5044579;28;20543;-68
2024/04/04 07:17:23;;;;;;;13.07;8.50;;;14.00;99.90;;;;;;5060046;28;20035;-68
2024/04/04 07:19:53;;;;;;;8.88;7.68;;;14.10;99.90;;;;;;5058826;28;20380;-68
2024/04/04 07:22:19;;;;;;;11.82;8.05;;;14.20;99.90;;;;;;5058940;28;20025;-68
2024/04/04 07:24:45;;;;;;;12.88;7.75;;;14.30;99.90;;;;;;5056567;28;20493;-69
2024/04/04 07:27:11;;;;;;;13.13;7.82;;;14.40;99.90;;;;;;5056588;28;20040;-71
2024/04/04 07:29:37;;;;;;;12.88;7.82;;;14.40;99.90;;;;;;5063921;28;20105;-67
2024/04/04 07:32:03;;;;;;;10.60;7.75;;;14.40;99.90;;;;;;5054924;28;20045;-67
2024/04/04 07:34:29;;;;;;;10.15;7.55;;;14.50;99.90;;;;;;5056236;28;20032;-62
2024/04/04 07:36:56;;;;;;;10.73;7.72;;;14.40;99.90;;;;;;5052701;28;20116;-61
2024/04/04 07:39:22;;;;;;;9.23;8.13;;;14.60;99.90;;;;;;5054616;28;20099;-62
2024/04/04 07:41:48;;;;;;;14.52;7.88;;;14.60;99.90;;;;;;5052457;28;20055;-66
2024/04/04 07:44:14;;;;;;;15.27;7.90;;;14.60;99.90;;;;;;5052962;28;20116;-64
2024/04/04 07:46:41;;;;;;;11.48;8.80;;;14.70;99.90;;;;;;5052173;28;20135;-60
2024/04/04 07:49:07;;;;;;;12.00;7.85;;;14.70;99.90;;;;;;5048844;28;20032;-67
2024/04/04 07:51:33;;;;;;;12.27;9.20;;;14.80;99.90;;;;;;5038366;28;20111;-64
2024/04/04 07:53:59;;;;;;;12.77;9.18;;;14.80;99.90;;;;;;5056980;28;20132;-66
2024/04/04 07:56:25;;;;;;;13.35;8.88;;;14.80;99.90;;;;;;5056314;28;20394;-63
2024/04/04 07:58:51;;;;;;;12.52;7.78;;;14.80;99.90;;;;;;5056544;28;20091;-64
2024/04/04 08:01:17;;;;;;;9.73;7.97;;;14.70;99.90;;;;;;5060334;28;20029;-62
2024/04/04 08:03:46;;;;;;;13.18;8.90;;;14.70;99.90;;;;;;5041150;28;20554;-62
2024/04/04 08:06:12;;;;;;;11.13;8.52;;;14.90;99.90;;;;;;5063765;28;20040;-64
2024/04/04 08:08:38;;;;;;;11.70;7.85;;;15.00;99.90;;;;;;5056776;28;20422;-64
2024/04/04 08:11:05;;;;;;;13.43;8.90;;;15.10;99.90;;;;;;5058648;28;20021;-64
2024/04/04 08:13:31;;;;;;;12.13;8.60;;;15.10;99.90;;;;;;5036554;28;20098;-66
2024/04/04 08:15:56;;;;;;;18.90;8.90;;;15.10;99.90;;;;;;5053588;28;20455;-63
2024/04/04 08:18:22;;;;;;;13.10;8.98;;;15.10;99.90;;;;;;5061828;28;20467;-61
2024/04/04 08:20:47;;;;;;;12.73;9.27;;;15.20;99.90;;;;;;5053506;28;20025;-60
2024/04/04 08:23:13;;;;;;;12.25;8.63;;;15.20;99.90;;;;;;5053979;28;20463;-60
2024/04/04 08:25:40;;;;;;;10.82;8.93;;;15.30;99.90;;;;;;5050514;28;20032;-61
2024/04/04 08:28:06;;;;;;;21.60;8.40;;;15.40;99.90;;;;;;5053018;28;20032;-62
2024/04/04 08:30:32;;;;;;;13.90;9.45;;;15.30;99.90;;;;;;5055757;28;20107;-61
2024/04/04 08:32:58;;;;;;;14.45;10.00;;;15.40;99.90;;;;;;5058124;28;20340;-61
2024/04/04 08:35:24;;;;;;;13.27;8.93;;;15.40;99.90;;;;;;5064672;28;20033;-61
2024/04/04 08:37:49;;;;;;;12.88;9.43;;;15.40;99.90;;;;;;5066882;28;20045;-72
2024/04/04 08:40:15;;;;;;;10.40;8.68;;;15.50;99.90;;;;;;5061145;28;20116;-67
2024/04/04 08:42:42;;;;;;;12.25;9.02;;;15.60;99.90;;;;;;5054988;28;20017;-74
2024/04/04 08:45:12;;;;;;;11.38;8.88;;;15.70;99.90;;;;;;5056743;28;20033;-74
2024/04/04 08:47:39;;;;;;;20.55;9.77;;;15.80;99.90;;;;;;5055017;28;20123;-63
2024/04/04 08:50:07;;;;;;;13.38;9.82;;;15.90;99.90;;;;;;5053918;28;20037;-67
2024/04/04 08:52:34;;;;;;;11.05;9.40;;;15.90;99.90;;;;;;5055947;28;20032;-62
2024/04/04 08:55:00;;;;;;;19.10;9.55;;;16.00;99.90;;;;;;5048059;28;20032;-70
2024/04/04 08:57:26;;;;;;;12.60;8.85;;;16.00;99.90;;;;;;5055979;28;20029;-68
2024/04/04 08:59:58;;;;;;;11.05;8.15;;;15.90;99.90;;;;;;5057950;28;20025;-65
2024/04/04 09:02:26;;;;;;;10.32;8.52;;;15.80;99.90;;;;;;5052345;28;20504;-62
2024/04/04 09:05:03;;;;;;;11.73;8.85;;;15.70;99.90;;;;;;5052797;28;20487;-68
2024/04/04 09:07:29;;;;;;;10.38;7.80;;;15.80;99.90;;;;;;5057458;28;20068;-61
2024/04/04 09:09:55;;;;;;;9.93;6.63;;;15.80;99.90;;;;;;5060869;28;20051;-60
2024/04/04 09:12:20;;;;;;;11.18;7.57;;;15.80;99.90;;;;;;5055224;28;20086;-61
2024/04/04 09:15:00;;;;;;;8.52;7.60;;;15.80;99.90;;;;;;5034601;28;20060;-71
2024/04/04 09:17:26;;;;;;;11.80;7.45;;;15.90;99.90;;;;;;5052721;28;20035;-67
2024/04/04 09:19:56;;;;;;;9.57;6.30;;;16.10;99.90;;;;;;5058254;28;20090;-72
2024/04/04 09:22:24;;;;;;;9.15;6.95;;;16.20;99.90;;;;;;5052027;28;20037;-70
2024/04/04 09:24:50;;;;;;;8.30;6.72;;;16.30;99.90;;;;;;5050701;28;20036;-75
2024/04/04 09:27:19;;;;;;;8.43;6.32;;;;;;;;;;5037288;28;20080;-66
2024/04/04 09:29:46;;;;;;;9.13;6.07;;;;;;;;;;5052351;28;20540;-65
2024/04/04 09:32:13;;;;;;;7.50;4.63;;;;;;;;;;5053776;28;20017;-66
2024/04/04 09:34:42;;;;;;;7.85;4.18;;;;;;;;;;5050734;28;20044;-65
2024/04/04 09:37:09;;;;;;;5.15;3.90;;;;;;;;;;5051876;28;20032;-61
2024/04/04 09:39:36;;;;;;;4.70;3.30;;;;;;;;;;5050601;28;20055;-61
2024/04/04 09:42:03;;;;;;;3.60;2.45;;;;;;;;;;5041119;28;20025;-62
2024/04/04 09:44:29;;;;;;;4.13;2.58;;;;;;;;;;5050521;28;20017;-62
2024/04/04 09:46:57;;;;;;;3.85;2.70;;;;;;;;;;5051789;28;20086;-62
2024/04/04 09:49:43;;;;;;;3.88;2.42;;;;;;;;;;5050679;28;20404;-62
2024/04/04 09:52:09;;;;;;;4.00;2.78;;;;;;;;;;5047839;28;20079;-62
2024/04/04 09:54:35;;;;;;;6.57;4.03;;;;;;;;;;5047591;28;20053;-62
2024/04/04 09:57:02;;;;;;;6.25;2.97;;;;;;;;;;5049663;28;20419;-61
2024/04/04 09:59:29;;;;;;;5.55;3.92;;;;;;;;;;5051900;28;20462;-62
2024/04/04 10:02:05;;;;;;;4.55;3.40;;;;;;;;;;5051523;28;20051;-61
2024/04/04 10:04:35;;;;;;;4.32;3.83;;;;;;;;;;5051916;28;20420;-62
2024/04/04 10:07:01;;;;;;;9.85;4.60;;;;;;;;;;5050089;28;20108;-61
2024/04/04 10:09:36;;;;;;;6.32;4.50;;;;;;;;;;5050422;28;20021;-62
2024/04/04 10:12:01;;;;;;;;;;;;;;;;;;5039197;28;20115;-62
2024/04/04 10:14:27;;;;;;;7.88;4.30;;;;;;;;;;5051834;28;19908;-62
2024/04/04 10:16:54;;;;;;;8.95;3.75;;;;;;;;;;5049508;28;20227;-61
2024/04/04 10:19:21;;;;;;;8.73;4.05;;;;;;;;;;5051022;28;20029;-61
2024/04/04 10:21:47;;;;;;;4.22;2.97;;;;;;;;;;5051053;28;20100;-62
2024/04/04 10:24:24;;;;;;;7.75;3.63;;;;;;;;;;5051085;28;20021;-62
2024/04/04 10:26:51;;;;;;;5.90;3.33;;;;;;;;;;5051503;28;20041;-62
2024/04/04 10:29:17;;;;;;;9.68;4.22;;;;;;;;;;5052076;28;20480;-61
2024/04/04 10:31:43;;;;;;;9.57;3.70;;;;;;;;;;5051631;28;20043;-61
2024/04/04 10:34:11;;;;;;;5.90;3.15;;;;;;;;;;5033749;28;20044;-61
2024/04/04 10:36:44;;;;;;;8.50;3.42;;;;;;;;;;5050061;28;20028;-62
2024/04/04 10:39:16;;;;;;;9.43;4.50;;;;;;;;;;5048505;28;20025;-61
2024/04/04 10:41:43;;;;;;;6.63;3.67;;;;;;;;;;5050253;28;20033;-61
2024/04/04 10:44:16;;;;;;;6.03;3.25;;;;;;;;;;5051181;28;20040;-61
2024/04/04 10:46:42;;;;;;;4.63;2.80;;;;;;;;;;5050176;28;20045;-60
2024/04/04 10:49:09;;;;;;;8.32;3.15;;;;;;;;;;5052193;28;20497;-62
2024/04/04 10:51:39;;;;;;;6.72;3.30;;;;;;;;;;5055116;28;20471;-61
2024/04/04 10:54:06;;;;;;;6.68;3.42;;;;;;;;;;5054919;28;20423;-62
2024/04/04 10:56:32;;;;;;;6.10;2.58;;;;;;;;;;5052584;28;20024;-62
2024/04/04 10:58:58;;;;;;;6.15;2.42;;;;;;;;;;5054351;28;20036;-62
2024/04/04 11:01:24;;;;;;;3.42;2.65;;;;;;;;;;5054912;28;20024;-62
2024/04/04 11:03:51;;;;;;;8.15;2.78;;;;;;;;;;5054742;28;20017;-62
2024/04/04 11:06:17;;;;;;;5.05;2.50;;;;;;;;;;5054630;28;20048;-61
2024/04/04 11:08:46;;;;;;;7.00;2.60;;;;;;;;;;5055138;28;20155;-60
2024/04/04 11:11:12;;;;;;;4.57;2.00;;;;;;;;;;5054698;28;20047;-61
2024/04/04 11:13:39;;;;;;;4.32;2.00;;;;;;;;;;5054417;28;20169;-61
2024/04/04 11:16:05;;;;;;;8.70;2.58;;;;;;;;;;5053076;28;20056;-61
2024/04/04 11:18:36;;;;;;;9.75;2.85;;;;;;;;;;5054305;28;20108;-61
2024/04/04 11:21:03;;;;;;;7.55;2.72;;;;;;;;;;5054279;28;20100;-61
2024/04/04 11:23:29;;;;;;;3.83;2.20;;;;;;;;;;5053109;28;20028;-61
2024/04/04 11:25:55;;;;;;;7.20;2.83;;;;;;;;;;5053298;28;20029;-61
2024/04/04 11:28:21;;;;;;;5.65;2.60;;;;;;;;;;5049885;28;20547;-61
2024/04/04 11:30:47;;;;;;;6.38;2.75;;;;;;;;;;5052444;28;20114;-61
2024/04/04 11:33:13;;;;;;;4.47;2.70;;;;;;;;;;5053163;28;20017;-63
2024/04/04 11:35:39;;;;;;;4.60;2.30;;;;;;;;;;5051452;28;20383;-62
2024/04/04 11:38:05;;;;;;;7.70;3.08;;;;;;;;;;5053736;28;20021;-62
2024/04/04 11:40:31;;;;;;;5.10;2.03;;;;;;;;;;5053257;28;20036;-63
2024/04/04 11:42:57;;;;;;;5.28;2.05;;;;;;;;;;5054021;28;20017;-61
2024/04/04 11:45:23;;;;;;;6.93;1.77;;;;;;;;;;5053961;28;20516;-61
2024/04/04 11:47:49;;;;;;;4.47;2.13;;;;;;;;;;5053983;28;20490;-61
2024/04/04 11:50:15;;;;;;;4.28;2.20;;;;;;;;;;5054063;28;20025;-62
2024/04/04 11:52:44;;;;;;;9.60;2.92;;;;;;;;;;5053936;28;20078;-62
2024/04/04 11:55:10;;;;;;;5.90;2.47;;;;;;;;;;5044328;28;20033;-61
2024/04/04 11:57:36;;;;;;;7.40;1.92;;;;;;;;;;5052220;28;20520;-61
2024/04/04 12:00:04;;;;;;;6.65;2.90;;;;;;;;;;5053621;28;20025;-62
2024/04/04 12:02:55;;;;;;;8.40;2.55;;;;;;;;;;5053778;28;20021;-62
2024/04/04 12:05:21;;;;;;;8.20;2.40;;;;;;;;;;5052909;28;20025;-62
2024/04/04 12:07:47;;;;;;;4.57;2.13;;;;;;;;;;5053592;28;20044;-62
2024/04/04 12:10:14;;;;;;;6.72;2.25;;;;;;;;;;5051155;28;20029;-62
2024/04/04 12:12:40;;;;;;;6.88;2.58;;;;;;;;;;5053444;28;20180;-62
2024/04/04 12:15:09;;;;;;;8.88;3.22;;;;;;;;;;5052687;28;20033;-62
2024/04/04 12:17:36;;;;;;;7.18;2.55;;;;;;;;;;5052836;28;20361;-62
2024/04/04 12:20:03;;;;;;;6.00;2.88;;;;;;;;;;5053179;28;20484;-62
2024/04/04 12:22:29;;;;;;;6.55;1.73;;;;;;;;;;5053176;28;20103;-62
2024/04/04 12:24:56;;;;;;;10.38;2.35;;;;;;;;;;5035844;28;20040;-62
2024/04/04 12:27:22;;;;;;;6.97;2.50;;;;;;;;;;5053240;28;20145;-62
2024/04/04 12:29:47;;;;;;;6.13;2.33;;;16.50;99.90;;;;;;5053463;28;20052;-62
2024/04/04 12:32:13;;;;;;;5.90;2.63;;;;;;;;;;5053258;28;20063;-62
2024/04/04 12:34:39;;;;;;;6.07;2.20;;;;;;;;;;5053464;28;20438;-62
2024/04/04 12:37:06;;;;;;;9.75;3.53;;;;;;;;;;5053084;28;20112;-62
2024/04/04 12:39:31;;;;;;;7.57;2.40;;;27.40;99.90;;;;;;5050653;28;20033;-62
2024/04/04 12:41:57;;;;;;;7.22;2.45;;;21.10;99.90;;;;;;5052997;28;20463;-62
2024/04/04 12:44:22;;;;;;;7.05;2.25;;;20.60;99.90;;;;;;5053065;28;20487;-62
2024/04/04 12:46:48;;;;;;;7.72;2.70;;;20.60;99.90;;;;;;5052808;28;20131;-62
2024/04/04 12:49:14;;;;;;;3.85;2.47;;;;;;;;;;5051416;28;20029;-72
2024/04/04 12:51:40;;;;;;;4.65;2.70;;;;;;;;;;5049001;28;20113;-73
2024/04/04 12:54:07;;;;;;;7.40;2.67;;;;;;;;;;5050667;28;20033;-59
2024/04/04 12:56:33;;;;;;;5.25;2.38;;;;;;;;;;5053552;28;20017;-60
2024/04/04 12:58:59;;;;;;;4.25;2.42;;;22.10;99.90;;;;;;5053032;28;20067;-60
2024/04/04 13:01:25;;;;;;;8.57;2.55;;;;;;;;;;5063503;28;20059;-70
2024/04/04 13:03:51;;;;;;;7.75;2.90;;;;;;;;;;5054977;28;20056;-69
2024/04/04 13:06:17;;;;;;;7.53;2.15;;;;;;;;;;5063918;28;20056;-49
2024/04/04 13:08:44;;;;;;;4.22;1.92;;;;;;;;;;5052832;28;20078;-64
2024/04/04 13:11:10;;;;;;;6.30;2.55;;;;;;;;;;5053964;28;20032;-59
2024/04/04 13:13:36;;;;;;;6.97;2.20;;;;;;;;;;5052857;28;20033;-61
2024/04/04 13:16:03;;;;;;;4.57;2.10;;;;;;;;;;5052675;28;20471;-63
2024/04/04 13:18:29;;;;;;;11.23;2.50;;;;;;;;;;5057871;28;20029;-73
2024/04/04 13:20:57;;;;;;;4.70;2.40;;;;;;;;;;5066038;28;20030;-68
2024/04/04 13:23:23;;;;;;;7.13;2.47;;;;;;;;;;5057176;28;20025;-66